sensor_id;sensor_type;location;lat;lon;timestamp;P1;durP1;ratioP1;P2;durP2;ratioP2
34832;SDS011;55941;50.800;4.342;2023-04-24T00:01:58;28.42;;;14.55;;
34832;SDS011;55941;50.800;4.342;2023-04-24T00:04:24;33.70;;;14.60;;
34832;SDS011;55941;50.800;4.342;2023-04-24T00:06:52;29.48;;;15.25;;
34832;SDS011;55941;50.800;4.342;2023-04-24T00:09:24;25.48;;;11.40;;
34832;SDS011;55941;50.800;4.342;2023-04-24T00:11:49;28.85;;;14.07;;
34832;SDS011;55941;50.800;4.342;2023-04-24T00:14:15;32.55;;;14.63;;
34832;SDS011;55941;50.800;4.342;2023-04-24T00:16:44;32.15;;;16.33;;
34832;SDS011;55941;50.800;4.342;2023-04-24T00:19:12;30.75;;;15.07;;
34832;SDS011;55941;50.800;4.342;2023-04-24T00:21:38;34.20;;;16.02;;
34832;SDS011;55941;50.800;4.342;2023-04-24T00:24:04;39.58;;;16.30;;
34832;SDS011;55941;50.800;4.342;2023-04-24T00:26:32;35.03;;;15.52;;
34832;SDS011;55941;50.800;4.342;2023-04-24T00:29:00;38.33;;;15.35;;
34832;SDS011;55941;50.800;4.342;2023-04-24T00:31:27;30.52;;;15.18;;
34832;SDS011;55941;50.800;4.342;2023-04-24T00:33:54;30.75;;;15.50;;
34832;SDS011;55941;50.800;4.342;2023-04-24T00:36:20;31.10;;;15.45;;
34832;SDS011;55941;50.800;4.342;2023-04-24T00:38:52;32.30;;;15.73;;
34832;SDS011;55941;50.800;4.342;2023-04-24T00:41:21;34.25;;;15.18;;
34832;SDS011;55941;50.800;4.342;2023-04-24T00:43:47;33.85;;;16.35;;
34832;SDS011;55941;50.800;4.342;2023-04-24T00:46:15;30.23;;;15.45;;
34832;SDS011;55941;50.800;4.342;2023-04-24T00:48:41;31.35;;;15.60;;
34832;SDS011;55941;50.800;4.342;2023-04-24T00:51:08;32.53;;;15.75;;
34832;SDS011;55941;50.800;4.342;2023-04-24T00:56:05;30.60;;;16.48;;
34832;SDS011;55941;50.800;4.342;2023-04-24T01:01:00;35.42;;;16.60;;
34832;SDS011;55941;50.800;4.342;2023-04-24T01:03:28;35.95;;;16.58;;
34832;SDS011;55941;50.800;4.342;2023-04-24T01:05:59;31.65;;;16.40;;
34832;SDS011;55941;50.800;4.342;2023-04-24T01:08:26;33.22;;;17.25;;
34832;SDS011;55941;50.800;4.342;2023-04-24T01:10:53;39.80;;;18.50;;
34832;SDS011;55941;50.800;4.342;2023-04-24T01:13:20;36.60;;;18.77;;
34832;SDS011;55941;50.800;4.342;2023-04-24T01:15:48;37.45;;;19.20;;
34832;SDS011;55941;50.800;4.342;2023-04-24T01:18:14;33.67;;;19.33;;
34832;SDS011;55941;50.800;4.342;2023-04-24T01:20:46;38.80;;;20.17;;
34832;SDS011;55941;50.800;4.342;2023-04-24T01:23:17;40.80;;;19.92;;
34832;SDS011;55941;50.800;4.342;2023-04-24T01:25:43;30.25;;;17.65;;
34832;SDS011;55941;50.800;4.342;2023-04-24T01:28:09;30.75;;;17.52;;
34832;SDS011;55941;50.800;4.342;2023-04-24T01:33:07;35.45;;;19.25;;
34832;SDS011;55941;50.800;4.342;2023-04-24T01:35:34;40.35;;;19.27;;
34832;SDS011;55941;50.800;4.342;2023-04-24T01:38:01;38.45;;;20.13;;
34832;SDS011;55941;50.800;4.342;2023-04-24T01:40:29;37.22;;;21.55;;
34832;SDS011;55941;50.800;4.342;2023-04-24T01:42:55;40.63;;;20.95;;
34832;SDS011;55941;50.800;4.342;2023-04-24T01:45:22;43.53;;;21.35;;
34832;SDS011;55941;50.800;4.342;2023-04-24T01:47:48;37.53;;;21.55;;
34832;SDS011;55941;50.800;4.342;2023-04-24T01:50:15;41.58;;;23.98;;
34832;SDS011;55941;50.800;4.342;2023-04-24T01:52:41;38.05;;;22.02;;
34832;SDS011;55941;50.800;4.342;2023-04-24T01:55:10;44.20;;;22.90;;
34832;SDS011;55941;50.800;4.342;2023-04-24T02:00:06;46.85;;;25.45;;
34832;SDS011;55941;50.800;4.342;2023-04-24T02:02:32;45.08;;;25.35;;
34832;SDS011;55941;50.800;4.342;2023-04-24T02:04:58;48.63;;;24.90;;
34832;SDS011;55941;50.800;4.342;2023-04-24T02:07:24;43.95;;;25.67;;
34832;SDS011;55941;50.800;4.342;2023-04-24T02:09:50;51.20;;;26.10;;
34832;SDS011;55941;50.800;4.342;2023-04-24T02:12:16;44.85;;;25.52;;
34832;SDS011;55941;50.800;4.342;2023-04-24T02:14:42;46.97;;;27.02;;
34832;SDS011;55941;50.800;4.342;2023-04-24T02:17:09;47.47;;;26.40;;
34832;SDS011;55941;50.800;4.342;2023-04-24T02:19:37;45.97;;;26.75;;
34832;SDS011;55941;50.800;4.342;2023-04-24T02:22:04;44.17;;;25.58;;
34832;SDS011;55941;50.800;4.342;2023-04-24T02:24:31;39.15;;;27.17;;
34832;SDS011;55941;50.800;4.342;2023-04-24T02:26:57;44.88;;;26.08;;
34832;SDS011;55941;50.800;4.342;2023-04-24T02:29:22;45.95;;;25.20;;
34832;SDS011;55941;50.800;4.342;2023-04-24T02:31:48;45.97;;;25.13;;
34832;SDS011;55941;50.800;4.342;2023-04-24T02:34:15;42.22;;;23.60;;
34832;SDS011;55941;50.800;4.342;2023-04-24T02:36:41;36.97;;;22.85;;
34832;SDS011;55941;50.800;4.342;2023-04-24T02:39:07;39.10;;;23.55;;
34832;SDS011;55941;50.800;4.342;2023-04-24T02:41:34;38.58;;;23.02;;
34832;SDS011;55941;50.800;4.342;2023-04-24T02:44:01;44.95;;;24.45;;
34832;SDS011;55941;50.800;4.342;2023-04-24T02:46:27;36.38;;;21.98;;
34832;SDS011;55941;50.800;4.342;2023-04-24T02:48:54;48.92;;;23.73;;
34832;SDS011;55941;50.800;4.342;2023-04-24T02:51:22;39.65;;;21.90;;
34832;SDS011;55941;50.800;4.342;2023-04-24T02:53:48;46.83;;;24.05;;
34832;SDS011;55941;50.800;4.342;2023-04-24T02:56:14;34.20;;;21.77;;
34832;SDS011;55941;50.800;4.342;2023-04-24T02:58:40;40.70;;;22.52;;
34832;SDS011;55941;50.800;4.342;2023-04-24T03:01:10;43.25;;;21.20;;
34832;SDS011;55941;50.800;4.342;2023-04-24T03:03:37;39.85;;;21.92;;
34832;SDS011;55941;50.800;4.342;2023-04-24T03:06:04;30.25;;;20.15;;
34832;SDS011;55941;50.800;4.342;2023-04-24T03:08:31;42.92;;;20.48;;
34832;SDS011;55941;50.800;4.342;2023-04-24T03:10:59;35.58;;;18.67;;
34832;SDS011;55941;50.800;4.342;2023-04-24T03:13:25;32.03;;;18.38;;
34832;SDS011;55941;50.800;4.342;2023-04-24T03:15:51;33.50;;;18.58;;
34832;SDS011;55941;50.800;4.342;2023-04-24T03:18:17;30.55;;;17.42;;
34832;SDS011;55941;50.800;4.342;2023-04-24T03:20:45;33.47;;;18.50;;
34832;SDS011;55941;50.800;4.342;2023-04-24T03:23:12;32.72;;;18.83;;
34832;SDS011;55941;50.800;4.342;2023-04-24T03:25:38;36.92;;;18.85;;
34832;SDS011;55941;50.800;4.342;2023-04-24T03:28:05;33.40;;;18.70;;
34832;SDS011;55941;50.800;4.342;2023-04-24T03:30:34;38.90;;;20.33;;
34832;SDS011;55941;50.800;4.342;2023-04-24T03:35:30;37.15;;;20.20;;
34832;SDS011;55941;50.800;4.342;2023-04-24T03:37:56;39.53;;;20.73;;
34832;SDS011;55941;50.800;4.342;2023-04-24T03:40:22;36.33;;;21.02;;
34832;SDS011;55941;50.800;4.342;2023-04-24T03:42:48;39.05;;;20.38;;
34832;SDS011;55941;50.800;4.342;2023-04-24T03:45:14;33.47;;;17.50;;
34832;SDS011;55941;50.800;4.342;2023-04-24T03:47:39;36.13;;;18.67;;
34832;SDS011;55941;50.800;4.342;2023-04-24T03:50:05;31.00;;;16.92;;
34832;SDS011;55941;50.800;4.342;2023-04-24T03:52:33;28.08;;;14.20;;
34832;SDS011;55941;50.800;4.342;2023-04-24T03:55:00;26.05;;;15.23;;
34832;SDS011;55941;50.800;4.342;2023-04-24T03:57:27;24.33;;;13.80;;
34832;SDS011;55941;50.800;4.342;2023-04-24T03:59:52;24.42;;;12.27;;
34832;SDS011;55941;50.800;4.342;2023-04-24T04:02:19;22.40;;;12.82;;
34832;SDS011;55941;50.800;4.342;2023-04-24T04:04:46;26.45;;;12.73;;
34832;SDS011;55941;50.800;4.342;2023-04-24T04:07:12;25.77;;;11.93;;
34832;SDS011;55941;50.800;4.342;2023-04-24T04:09:38;21.63;;;11.23;;
34832;SDS011;55941;50.800;4.342;2023-04-24T04:12:04;18.33;;;10.98;;
34832;SDS011;55941;50.800;4.342;2023-04-24T04:14:31;27.35;;;11.38;;
34832;SDS011;55941;50.800;4.342;2023-04-24T04:16:58;16.75;;;10.48;;
34832;SDS011;55941;50.800;4.342;2023-04-24T04:19:24;23.27;;;10.52;;
34832;SDS011;55941;50.800;4.342;2023-04-24T04:21:50;16.10;;;9.75;;
34832;SDS011;55941;50.800;4.342;2023-04-24T04:24:18;18.13;;;10.25;;
34832;SDS011;55941;50.800;4.342;2023-04-24T04:26:46;19.05;;;10.05;;
34832;SDS011;55941;50.800;4.342;2023-04-24T04:29:12;15.38;;;10.00;;
34832;SDS011;55941;50.800;4.342;2023-04-24T04:31:38;16.85;;;10.40;;
34832;SDS011;55941;50.800;4.342;2023-04-24T04:34:06;20.17;;;10.65;;
34832;SDS011;55941;50.800;4.342;2023-04-24T04:36:32;20.42;;;10.18;;
34832;SDS011;55941;50.800;4.342;2023-04-24T04:39:02;22.45;;;11.48;;
34832;SDS011;55941;50.800;4.342;2023-04-24T04:41:31;18.13;;;10.45;;
34832;SDS011;55941;50.800;4.342;2023-04-24T04:43:58;14.95;;;10.18;;
34832;SDS011;55941;50.800;4.342;2023-04-24T04:46:30;17.90;;;10.77;;
34832;SDS011;55941;50.800;4.342;2023-04-24T04:48:59;22.40;;;11.15;;
34832;SDS011;55941;50.800;4.342;2023-04-24T04:51:25;20.63;;;11.07;;
34832;SDS011;55941;50.800;4.342;2023-04-24T04:53:51;20.85;;;11.18;;
34832;SDS011;55941;50.800;4.342;2023-04-24T04:56:17;23.35;;;11.63;;
34832;SDS011;55941;50.800;4.342;2023-04-24T04:58:42;21.52;;;11.55;;
34832;SDS011;55941;50.800;4.342;2023-04-24T05:01:10;23.02;;;12.88;;
34832;SDS011;55941;50.800;4.342;2023-04-24T05:03:36;23.52;;;11.75;;
34832;SDS011;55941;50.800;4.342;2023-04-24T05:06:03;26.30;;;13.07;;
34832;SDS011;55941;50.800;4.342;2023-04-24T05:08:30;23.83;;;13.05;;
34832;SDS011;55941;50.800;4.342;2023-04-24T05:10:55;32.30;;;14.57;;
34832;SDS011;55941;50.800;4.342;2023-04-24T05:13:21;26.52;;;14.40;;
34832;SDS011;55941;50.800;4.342;2023-04-24T05:15:48;25.50;;;14.50;;
34832;SDS011;55941;50.800;4.342;2023-04-24T05:18:14;25.90;;;14.77;;
34832;SDS011;55941;50.800;4.342;2023-04-24T05:20:40;24.13;;;14.82;;
34832;SDS011;55941;50.800;4.342;2023-04-24T05:23:08;35.00;;;15.90;;
34832;SDS011;55941;50.800;4.342;2023-04-24T05:25:35;28.05;;;16.55;;
34832;SDS011;55941;50.800;4.342;2023-04-24T05:28:02;32.63;;;16.05;;
34832;SDS011;55941;50.800;4.342;2023-04-24T05:30:28;30.98;;;16.80;;
34832;SDS011;55941;50.800;4.342;2023-04-24T05:32:53;31.60;;;15.73;;
34832;SDS011;55941;50.800;4.342;2023-04-24T05:35:19;34.63;;;15.95;;
34832;SDS011;55941;50.800;4.342;2023-04-24T05:37:45;31.98;;;15.38;;
34832;SDS011;55941;50.800;4.342;2023-04-24T05:40:11;37.42;;;16.05;;
34832;SDS011;55941;50.800;4.342;2023-04-24T05:42:37;35.33;;;16.10;;
34832;SDS011;55941;50.800;4.342;2023-04-24T05:45:03;27.75;;;15.07;;
34832;SDS011;55941;50.800;4.342;2023-04-24T05:47:31;30.83;;;15.60;;
34832;SDS011;55941;50.800;4.342;2023-04-24T05:49:57;29.23;;;15.77;;
34832;SDS011;55941;50.800;4.342;2023-04-24T05:52:22;24.60;;;14.95;;
34832;SDS011;55941;50.800;4.342;2023-04-24T05:54:48;34.13;;;15.45;;
34832;SDS011;55941;50.800;4.342;2023-04-24T05:57:14;33.72;;;17.17;;
34832;SDS011;55941;50.800;4.342;2023-04-24T05:59:40;29.65;;;15.52;;
34832;SDS011;55941;50.800;4.342;2023-04-24T06:02:06;37.78;;;17.15;;
34832;SDS011;55941;50.800;4.342;2023-04-24T06:04:33;34.33;;;17.70;;
34832;SDS011;55941;50.800;4.342;2023-04-24T06:07:01;33.33;;;16.73;;
34832;SDS011;55941;50.800;4.342;2023-04-24T06:09:28;31.15;;;16.35;;
34832;SDS011;55941;50.800;4.342;2023-04-24T06:11:55;36.50;;;17.30;;
34832;SDS011;55941;50.800;4.342;2023-04-24T06:14:21;37.90;;;17.33;;
34832;SDS011;55941;50.800;4.342;2023-04-24T06:16:48;43.60;;;17.48;;
34832;SDS011;55941;50.800;4.342;2023-04-24T06:19:14;38.45;;;17.30;;
34832;SDS011;55941;50.800;4.342;2023-04-24T06:21:40;38.13;;;18.10;;
34832;SDS011;55941;50.800;4.342;2023-04-24T06:24:06;31.25;;;17.30;;
34832;SDS011;55941;50.800;4.342;2023-04-24T06:26:32;39.90;;;18.58;;
34832;SDS011;55941;50.800;4.342;2023-04-24T06:28:57;35.50;;;19.45;;
34832;SDS011;55941;50.800;4.342;2023-04-24T06:31:25;38.97;;;19.55;;
34832;SDS011;55941;50.800;4.342;2023-04-24T06:33:51;44.55;;;20.80;;
34832;SDS011;55941;50.800;4.342;2023-04-24T06:36:17;42.35;;;20.48;;
34832;SDS011;55941;50.800;4.342;2023-04-24T06:38:42;45.67;;;20.52;;
34832;SDS011;55941;50.800;4.342;2023-04-24T06:41:09;44.28;;;21.75;;
34832;SDS011;55941;50.800;4.342;2023-04-24T06:43:35;32.72;;;20.63;;
34832;SDS011;55941;50.800;4.342;2023-04-24T06:46:01;44.60;;;21.67;;
34832;SDS011;55941;50.800;4.342;2023-04-24T06:48:28;45.72;;;22.00;;
34832;SDS011;55941;50.800;4.342;2023-04-24T06:50:54;53.15;;;23.02;;
34832;SDS011;55941;50.800;4.342;2023-04-24T06:53:20;41.70;;;23.23;;
34832;SDS011;55941;50.800;4.342;2023-04-24T06:55:46;47.13;;;23.10;;
34832;SDS011;55941;50.800;4.342;2023-04-24T06:58:12;39.55;;;21.67;;
34832;SDS011;55941;50.800;4.342;2023-04-24T07:00:37;44.13;;;21.40;;
34832;SDS011;55941;50.800;4.342;2023-04-24T07:03:03;38.95;;;20.20;;
34832;SDS011;55941;50.800;4.342;2023-04-24T07:05:32;44.88;;;21.67;;
34832;SDS011;55941;50.800;4.342;2023-04-24T07:08:00;46.83;;;20.63;;
34832;SDS011;55941;50.800;4.342;2023-04-24T07:10:26;37.30;;;20.85;;
34832;SDS011;55941;50.800;4.342;2023-04-24T07:12:53;45.85;;;19.80;;
34832;SDS011;55941;50.800;4.342;2023-04-24T07:15:19;32.47;;;19.42;;
34832;SDS011;55941;50.800;4.342;2023-04-24T07:17:45;41.80;;;19.83;;
34832;SDS011;55941;50.800;4.342;2023-04-24T07:20:11;35.10;;;19.33;;
34832;SDS011;55941;50.800;4.342;2023-04-24T07:22:39;41.38;;;20.38;;
34832;SDS011;55941;50.800;4.342;2023-04-24T07:25:05;42.95;;;18.55;;
34832;SDS011;55941;50.800;4.342;2023-04-24T07:27:32;37.22;;;19.05;;
34832;SDS011;55941;50.800;4.342;2023-04-24T07:29:58;37.55;;;18.90;;
34832;SDS011;55941;50.800;4.342;2023-04-24T07:32:25;39.03;;;18.77;;
34832;SDS011;55941;50.800;4.342;2023-04-24T07:34:51;42.85;;;20.08;;
34832;SDS011;55941;50.800;4.342;2023-04-24T07:37:16;41.72;;;19.15;;
34832;SDS011;55941;50.800;4.342;2023-04-24T07:39:42;34.40;;;20.05;;
34832;SDS011;55941;50.800;4.342;2023-04-24T07:42:08;42.17;;;20.05;;
34832;SDS011;55941;50.800;4.342;2023-04-24T07:44:36;47.10;;;19.42;;
34832;SDS011;55941;50.800;4.342;2023-04-24T07:47:02;45.83;;;20.88;;
34832;SDS011;55941;50.800;4.342;2023-04-24T07:49:27;42.50;;;19.92;;
34832;SDS011;55941;50.800;4.342;2023-04-24T07:51:53;44.30;;;19.35;;
34832;SDS011;55941;50.800;4.342;2023-04-24T07:54:19;36.50;;;17.95;;
34832;SDS011;55941;50.800;4.342;2023-04-24T07:59:14;36.95;;;16.35;;
34832;SDS011;55941;50.800;4.342;2023-04-24T08:01:40;35.58;;;15.00;;
34832;SDS011;55941;50.800;4.342;2023-04-24T08:04:06;29.75;;;14.65;;
34832;SDS011;55941;50.800;4.342;2023-04-24T08:06:31;29.77;;;13.57;;
34832;SDS011;55941;50.800;4.342;2023-04-24T08:08:57;33.22;;;12.98;;
34832;SDS011;55941;50.800;4.342;2023-04-24T08:11:23;30.33;;;11.00;;
34832;SDS011;55941;50.800;4.342;2023-04-24T08:13:49;25.15;;;10.55;;
34832;SDS011;55941;50.800;4.342;2023-04-24T08:16:16;24.63;;;11.15;;
34832;SDS011;55941;50.800;4.342;2023-04-24T08:18:42;34.58;;;9.95;;
34832;SDS011;55941;50.800;4.342;2023-04-24T08:21:08;24.77;;;9.80;;
34832;SDS011;55941;50.800;4.342;2023-04-24T08:23:33;23.02;;;9.10;;
34832;SDS011;55941;50.800;4.342;2023-04-24T08:25:59;30.35;;;10.38;;
34832;SDS011;55941;50.800;4.342;2023-04-24T08:28:25;19.77;;;9.18;;
34832;SDS011;55941;50.800;4.342;2023-04-24T08:30:51;24.75;;;9.73;;
34832;SDS011;55941;50.800;4.342;2023-04-24T08:33:23;24.80;;;8.38;;
34832;SDS011;55941;50.800;4.342;2023-04-24T08:35:49;25.40;;;8.00;;
34832;SDS011;55941;50.800;4.342;2023-04-24T08:38:15;21.00;;;7.75;;
34832;SDS011;55941;50.800;4.342;2023-04-24T08:40:42;23.38;;;8.65;;
34832;SDS011;55941;50.800;4.342;2023-04-24T08:43:08;24.90;;;8.60;;
34832;SDS011;55941;50.800;4.342;2023-04-24T08:45:35;25.05;;;7.90;;
34832;SDS011;55941;50.800;4.342;2023-04-24T08:48:01;21.88;;;8.38;;
34832;SDS011;55941;50.800;4.342;2023-04-24T08:50:29;17.13;;;7.47;;
34832;SDS011;55941;50.800;4.342;2023-04-24T08:52:56;17.05;;;6.93;;
34832;SDS011;55941;50.800;4.342;2023-04-24T08:55:22;17.42;;;6.75;;
34832;SDS011;55941;50.800;4.342;2023-04-24T08:57:50;23.83;;;6.78;;
34832;SDS011;55941;50.800;4.342;2023-04-24T09:00:18;18.00;;;6.47;;
34832;SDS011;55941;50.800;4.342;2023-04-24T09:02:46;19.77;;;6.82;;
34832;SDS011;55941;50.800;4.342;2023-04-24T09:05:14;19.55;;;7.00;;
34832;SDS011;55941;50.800;4.342;2023-04-24T09:07:44;16.63;;;5.88;;
34832;SDS011;55941;50.800;4.342;2023-04-24T09:12:40;18.60;;;5.20;;
34832;SDS011;55941;50.800;4.342;2023-04-24T09:15:07;13.85;;;5.05;;
34832;SDS011;55941;50.800;4.342;2023-04-24T09:17:33;12.23;;;4.25;;
34832;SDS011;55941;50.800;4.342;2023-04-24T09:20:00;13.25;;;4.97;;
34832;SDS011;55941;50.800;4.342;2023-04-24T09:22:29;20.70;;;5.43;;
34832;SDS011;55941;50.800;4.342;2023-04-24T09:25:30;14.18;;;5.20;;
34832;SDS011;55941;50.800;4.342;2023-04-24T09:27:48;16.80;;;5.30;;
34832;SDS011;55941;50.800;4.342;2023-04-24T09:30:15;21.17;;;6.43;;
34832;SDS011;55941;50.800;4.342;2023-04-24T09:32:46;23.33;;;6.35;;
34832;SDS011;55941;50.800;4.342;2023-04-24T09:35:13;24.13;;;5.95;;
34832;SDS011;55941;50.800;4.342;2023-04-24T09:37:43;15.80;;;5.90;;
34832;SDS011;55941;50.800;4.342;2023-04-24T09:40:19;16.90;;;5.22;;
34832;SDS011;55941;50.800;4.342;2023-04-24T09:42:54;16.33;;;5.88;;
34832;SDS011;55941;50.800;4.342;2023-04-24T09:45:22;12.95;;;5.05;;
34832;SDS011;55941;50.800;4.342;2023-04-24T09:48:02;13.95;;;4.30;;
34832;SDS011;55941;50.800;4.342;2023-04-24T09:50:30;12.30;;;4.57;;
34832;SDS011;55941;50.800;4.342;2023-04-24T09:53:02;17.63;;;5.18;;
34832;SDS011;55941;50.800;4.342;2023-04-24T09:55:30;19.55;;;4.70;;
34832;SDS011;55941;50.800;4.342;2023-04-24T09:57:57;17.42;;;4.75;;
34832;SDS011;55941;50.800;4.342;2023-04-24T10:00:29;19.50;;;4.97;;
34832;SDS011;55941;50.800;4.342;2023-04-24T10:05:27;15.32;;;5.38;;
34832;SDS011;55941;50.800;4.342;2023-04-24T10:08:01;16.35;;;4.55;;
34832;SDS011;55941;50.800;4.342;2023-04-24T10:10:28;17.17;;;4.63;;
34832;SDS011;55941;50.800;4.342;2023-04-24T10:12:56;12.40;;;3.92;;
34832;SDS011;55941;50.800;4.342;2023-04-24T10:15:23;15.98;;;4.53;;
34832;SDS011;55941;50.800;4.342;2023-04-24T10:17:51;14.05;;;4.35;;
34832;SDS011;55941;50.800;4.342;2023-04-24T10:20:22;11.90;;;5.18;;
34832;SDS011;55941;50.800;4.342;2023-04-24T10:22:50;18.85;;;5.60;;
34832;SDS011;55941;50.800;4.342;2023-04-24T10:25:18;18.20;;;5.40;;
34832;SDS011;55941;50.800;4.342;2023-04-24T10:27:48;17.23;;;5.50;;
34832;SDS011;55941;50.800;4.342;2023-04-24T10:30:17;14.50;;;4.70;;
34832;SDS011;55941;50.800;4.342;2023-04-24T10:32:46;13.45;;;5.93;;
34832;SDS011;55941;50.800;4.342;2023-04-24T10:35:13;12.95;;;4.82;;
34832;SDS011;55941;50.800;4.342;2023-04-24T10:37:42;16.88;;;5.35;;
34832;SDS011;55941;50.800;4.342;2023-04-24T10:40:10;15.52;;;4.72;;
34832;SDS011;55941;50.800;4.342;2023-04-24T10:42:40;10.88;;;4.93;;
34832;SDS011;55941;50.800;4.342;2023-04-24T10:45:19;16.73;;;5.53;;
34832;SDS011;55941;50.800;4.342;2023-04-24T10:47:56;15.63;;;5.32;;
34832;SDS011;55941;50.800;4.342;2023-04-24T10:50:43;17.83;;;6.18;;
34832;SDS011;55941;50.800;4.342;2023-04-24T10:53:20;13.52;;;5.22;;
34832;SDS011;55941;50.800;4.342;2023-04-24T10:55:51;16.33;;;6.03;;
34832;SDS011;55941;50.800;4.342;2023-04-24T10:58:43;14.48;;;6.05;;
34832;SDS011;55941;50.800;4.342;2023-04-24T11:03:59;9.60;;;5.45;;
34832;SDS011;55941;50.800;4.342;2023-04-24T11:06:31;11.77;;;5.72;;
34832;SDS011;55941;50.800;4.342;2023-04-24T11:09:01;19.48;;;5.85;;
34832;SDS011;55941;50.800;4.342;2023-04-24T11:11:30;14.30;;;5.80;;
34832;SDS011;55941;50.800;4.342;2023-04-24T11:16:26;17.23;;;6.40;;
34832;SDS011;55941;50.800;4.342;2023-04-24T11:21:58;20.55;;;5.85;;
34832;SDS011;55941;50.800;4.342;2023-04-24T11:29:42;14.65;;;6.05;;
34832;SDS011;55941;50.800;4.342;2023-04-24T11:34:54;20.75;;;6.70;;
34832;SDS011;55941;50.800;4.342;2023-04-24T11:37:26;15.88;;;6.05;;
34832;SDS011;55941;50.800;4.342;2023-04-24T11:39:57;19.70;;;6.50;;
34832;SDS011;55941;50.800;4.342;2023-04-24T11:42:23;14.95;;;6.40;;
34832;SDS011;55941;50.800;4.342;2023-04-24T11:44:53;13.55;;;6.55;;
34832;SDS011;55941;50.800;4.342;2023-04-24T11:47:27;16.45;;;5.78;;
34832;SDS011;55941;50.800;4.342;2023-04-24T11:49:58;20.58;;;6.93;;
34832;SDS011;55941;50.800;4.342;2023-04-24T11:52:29;17.33;;;7.10;;
34832;SDS011;55941;50.800;4.342;2023-04-24T11:54:55;16.92;;;6.32;;
34832;SDS011;55941;50.800;4.342;2023-04-24T11:57:21;13.23;;;6.25;;
34832;SDS011;55941;50.800;4.342;2023-04-24T11:59:48;13.02;;;6.13;;
34832;SDS011;55941;50.800;4.342;2023-04-24T12:02:23;15.25;;;5.63;;
34832;SDS011;55941;50.800;4.342;2023-04-24T12:04:52;19.77;;;6.38;;
34832;SDS011;55941;50.800;4.342;2023-04-24T12:07:18;12.02;;;5.30;;
34832;SDS011;55941;50.800;4.342;2023-04-24T12:09:45;21.27;;;6.00;;
34832;SDS011;55941;50.800;4.342;2023-04-24T12:12:13;12.32;;;5.30;;
34832;SDS011;55941;50.800;4.342;2023-04-24T12:14:46;14.02;;;5.20;;
34832;SDS011;55941;50.800;4.342;2023-04-24T12:17:23;11.98;;;5.60;;
34832;SDS011;55941;50.800;4.342;2023-04-24T12:20:00;19.17;;;6.25;;
34832;SDS011;55941;50.800;4.342;2023-04-24T12:22:42;7.25;;;5.38;;
34832;SDS011;55941;50.800;4.342;2023-04-24T12:25:10;14.00;;;6.07;;
34832;SDS011;55941;50.800;4.342;2023-04-24T12:27:36;10.75;;;5.53;;
34832;SDS011;55941;50.800;4.342;2023-04-24T12:30:03;11.40;;;5.47;;
34832;SDS011;55941;50.800;4.342;2023-04-24T12:32:30;12.75;;;6.25;;
34832;SDS011;55941;50.800;4.342;2023-04-24T12:34:57;11.98;;;5.65;;
34832;SDS011;55941;50.800;4.342;2023-04-24T12:37:23;9.10;;;4.97;;
34832;SDS011;55941;50.800;4.342;2023-04-24T12:42:29;15.77;;;5.70;;
34832;SDS011;55941;50.800;4.342;2023-04-24T12:44:56;14.80;;;5.38;;
34832;SDS011;55941;50.800;4.342;2023-04-24T12:47:24;11.73;;;4.95;;
34832;SDS011;55941;50.800;4.342;2023-04-24T12:49:50;9.55;;;4.55;;
34832;SDS011;55941;50.800;4.342;2023-04-24T12:52:18;9.45;;;4.47;;
34832;SDS011;55941;50.800;4.342;2023-04-24T12:54:48;12.82;;;4.63;;
34832;SDS011;55941;50.800;4.342;2023-04-24T12:57:15;15.07;;;4.60;;
34832;SDS011;55941;50.800;4.342;2023-04-24T12:59:41;9.82;;;4.15;;
34832;SDS011;55941;50.800;4.342;2023-04-24T13:02:06;6.35;;;3.22;;
34832;SDS011;55941;50.800;4.342;2023-04-24T13:04:34;7.95;;;4.10;;
34832;SDS011;55941;50.800;4.342;2023-04-24T13:07:01;16.85;;;4.30;;
34832;SDS011;55941;50.800;4.342;2023-04-24T13:09:29;10.10;;;4.65;;
34832;SDS011;55941;50.800;4.342;2023-04-24T13:11:56;9.27;;;3.85;;
34832;SDS011;55941;50.800;4.342;2023-04-24T13:14:23;9.80;;;4.25;;
34832;SDS011;55941;50.800;4.342;2023-04-24T13:19:18;9.50;;;3.42;;
34832;SDS011;55941;50.800;4.342;2023-04-24T13:21:44;8.02;;;3.30;;
34832;SDS011;55941;50.800;4.342;2023-04-24T13:24:11;6.82;;;3.17;;
34832;SDS011;55941;50.800;4.342;2023-04-24T13:26:40;7.15;;;3.65;;
34832;SDS011;55941;50.800;4.342;2023-04-24T13:29:06;12.27;;;3.60;;
34832;SDS011;55941;50.800;4.342;2023-04-24T13:31:31;5.82;;;3.60;;
34832;SDS011;55941;50.800;4.342;2023-04-24T13:33:57;8.88;;;3.53;;
34832;SDS011;55941;50.800;4.342;2023-04-24T13:36:24;8.15;;;3.72;;
34832;SDS011;55941;50.800;4.342;2023-04-24T13:38:50;8.30;;;3.88;;
34832;SDS011;55941;50.800;4.342;2023-04-24T13:41:18;6.63;;;3.25;;
34832;SDS011;55941;50.800;4.342;2023-04-24T13:43:47;6.13;;;3.08;;
34832;SDS011;55941;50.800;4.342;2023-04-24T13:46:13;5.85;;;2.78;;
34832;SDS011;55941;50.800;4.342;2023-04-24T13:48:41;7.20;;;3.05;;
34832;SDS011;55941;50.800;4.342;2023-04-24T13:51:08;11.73;;;3.53;;
34832;SDS011;55941;50.800;4.342;2023-04-24T13:53:36;8.02;;;3.17;;
34832;SDS011;55941;50.800;4.342;2023-04-24T13:56:04;10.48;;;3.35;;
34832;SDS011;55941;50.800;4.342;2023-04-24T13:58:34;10.98;;;2.95;;
34832;SDS011;55941;50.800;4.342;2023-04-24T14:01:07;10.88;;;3.15;;
34832;SDS011;55941;50.800;4.342;2023-04-24T14:03:37;11.75;;;3.40;;
34832;SDS011;55941;50.800;4.342;2023-04-24T14:06:04;13.00;;;3.50;;
34832;SDS011;55941;50.800;4.342;2023-04-24T14:08:31;7.50;;;2.83;;
34832;SDS011;55941;50.800;4.342;2023-04-24T14:10:58;11.07;;;3.08;;
34832;SDS011;55941;50.800;4.342;2023-04-24T14:13:25;9.75;;;3.47;;
34832;SDS011;55941;50.800;4.342;2023-04-24T14:18:22;21.92;;;3.35;;
34832;SDS011;55941;50.800;4.342;2023-04-24T14:20:50;6.80;;;2.50;;
34832;SDS011;55941;50.800;4.342;2023-04-24T14:23:16;7.40;;;2.50;;
34832;SDS011;55941;50.800;4.342;2023-04-24T14:25:42;18.13;;;2.83;;
34832;SDS011;55941;50.800;4.342;2023-04-24T14:28:09;9.63;;;2.47;;
34832;SDS011;55941;50.800;4.342;2023-04-24T14:30:35;3.67;;;2.10;;
34832;SDS011;55941;50.800;4.342;2023-04-24T14:33:03;8.70;;;2.08;;
34832;SDS011;55941;50.800;4.342;2023-04-24T14:35:31;10.93;;;2.90;;
34832;SDS011;55941;50.800;4.342;2023-04-24T14:40:27;9.15;;;2.22;;
34832;SDS011;55941;50.800;4.342;2023-04-24T14:42:53;8.05;;;2.42;;
34832;SDS011;55941;50.800;4.342;2023-04-24T14:45:19;7.30;;;2.22;;
34832;SDS011;55941;50.800;4.342;2023-04-24T14:47:46;8.70;;;2.15;;
34832;SDS011;55941;50.800;4.342;2023-04-24T14:50:12;7.32;;;2.63;;
34832;SDS011;55941;50.800;4.342;2023-04-24T14:52:38;5.90;;;2.00;;
34832;SDS011;55941;50.800;4.342;2023-04-24T14:55:05;10.02;;;2.47;;
34832;SDS011;55941;50.800;4.342;2023-04-24T14:57:34;5.28;;;2.25;;
34832;SDS011;55941;50.800;4.342;2023-04-24T15:00:02;9.05;;;2.35;;
34832;SDS011;55941;50.800;4.342;2023-04-24T15:02:37;5.75;;;1.90;;
34832;SDS011;55941;50.800;4.342;2023-04-24T15:05:07;6.57;;;2.08;;
34832;SDS011;55941;50.800;4.342;2023-04-24T15:07:33;12.05;;;1.98;;
34832;SDS011;55941;50.800;4.342;2023-04-24T15:10:00;7.30;;;1.92;;
34832;SDS011;55941;50.800;4.342;2023-04-24T15:12:26;7.88;;;2.88;;
34832;SDS011;55941;50.800;4.342;2023-04-24T15:14:54;6.88;;;2.35;;
34832;SDS011;55941;50.800;4.342;2023-04-24T15:17:26;8.32;;;2.17;;